createdAt,value
2023-01-05T00:02:07.428Z,16.90
2023-01-05T00:04:54.257Z,16.03
2023-01-05T00:07:40.671Z,12.50
2023-01-05T00:10:44.619Z,15.00
2023-01-05T00:13:48.212Z,12.20
2023-01-05T00:16:53.651Z,12.83
2023-01-05T00:19:57.494Z,14.47
2023-01-05T00:22:45.842Z,11.30
2023-01-05T00:25:33.885Z,12.57
2023-01-05T00:28:20.656Z,15.43
2023-01-05T00:31:06.902Z,14.10
2023-01-05T00:33:55.093Z,12.50
2023-01-05T00:36:41.733Z,14.20
2023-01-05T00:39:27.933Z,19.90
2023-01-05T00:42:14.682Z,21.30
2023-01-05T00:45:00.952Z,18.57
2023-01-05T00:47:47.229Z,14.17
2023-01-05T00:50:35.134Z,14.30
2023-01-05T00:53:21.624Z,13.47
2023-01-05T00:56:08.102Z,13.77
2023-01-05T00:58:55.103Z,10.50
2023-01-05T01:01:41.381Z,15.30
2023-01-05T01:04:27.756Z,11.93
2023-01-05T01:07:15.721Z,10.67
2023-01-05T01:10:02.323Z,13.63
2023-01-05T01:12:48.806Z,13.37
2023-01-05T01:15:36.714Z,11.83
2023-01-05T01:18:23.475Z,13.17
2023-01-05T01:21:10.137Z,14.40
2023-01-05T01:23:57.913Z,13.63
2023-01-05T01:26:44.468Z,15.00
2023-01-05T01:29:30.797Z,16.53
2023-01-05T01:32:17.039Z,14.77
2023-01-05T01:35:03.644Z,17.87
2023-01-05T01:37:49.965Z,16.77
2023-01-05T01:40:40.797Z,14.20
2023-01-05T01:43:48.223Z,17.03
2023-01-05T01:46:34.456Z,16.57
2023-01-05T01:49:20.870Z,15.73
2023-01-05T01:52:07.375Z,13.03
2023-01-05T01:54:53.983Z,12.33
2023-01-05T01:57:42.765Z,13.87
2023-01-05T02:00:29.349Z,15.57
2023-01-05T02:03:16.200Z,12.73
2023-01-05T02:06:02.877Z,15.43
2023-01-05T02:08:49.473Z,14.27
2023-01-05T02:11:41.649Z,17.60
2023-01-05T02:14:34.966Z,18.10
2023-01-05T02:17:24.461Z,13.07
2023-01-05T02:20:33.416Z,14.77
2023-01-05T02:23:39.723Z,16.93
2023-01-05T02:26:50.173Z,16.33
2023-01-05T02:29:58.342Z,14.13
2023-01-05T02:32:48.830Z,11.90
2023-01-05T02:35:39.066Z,12.87
2023-01-05T02:38:29.006Z,12.20
2023-01-05T02:41:19.629Z,12.40
2023-01-05T02:44:08.672Z,13.73
2023-01-05T02:47:01.817Z,12.60
2023-01-05T02:49:49.800Z,13.43
2023-01-05T02:52:40.948Z,11.47
2023-01-05T02:55:30.818Z,13.27
2023-01-05T02:58:18.809Z,13.60
2023-01-05T03:01:07.686Z,11.10
2023-01-05T03:03:55.069Z,14.03
2023-01-05T03:06:47.988Z,12.70
2023-01-05T03:09:36.694Z,15.60
2023-01-05T03:12:42.712Z,13.10
2023-01-05T03:15:31.320Z,13.63
2023-01-05T03:18:18.480Z,14.83
2023-01-05T03:21:04.919Z,13.70
2023-01-05T03:24:09.997Z,14.47
2023-01-05T03:27:13.683Z,16.13
2023-01-05T03:30:17.658Z,16.20
2023-01-05T03:33:25.916Z,12.57
2023-01-05T03:36:13.321Z,12.10
2023-01-05T03:39:02.697Z,11.33
2023-01-05T03:41:49.641Z,13.43
2023-01-05T03:44:36.625Z,11.23
2023-01-05T03:47:24.219Z,12.03
2023-01-05T03:50:11.181Z,11.70
2023-01-05T03:52:57.503Z,9.50
2023-01-05T03:55:45.545Z,13.23
2023-01-05T03:58:32.014Z,11.40
2023-01-05T04:01:18.787Z,12.17
2023-01-05T04:04:05.459Z,15.73
2023-01-05T04:06:52.278Z,13.07
2023-01-05T04:09:38.442Z,10.07
2023-01-05T04:12:25.955Z,12.23
2023-01-05T04:15:12.834Z,13.07
2023-01-05T04:17:59.348Z,15.83
2023-01-05T04:20:45.434Z,13.33
2023-01-05T04:23:32.003Z,13.33
2023-01-05T04:26:18.107Z,11.77
2023-01-05T04:29:05.822Z,11.87
2023-01-05T04:31:52.301Z,12.43
2023-01-05T04:34:38.521Z,11.97
2023-01-05T04:37:24.914Z,11.90
2023-01-05T04:40:12.005Z,14.97
2023-01-05T04:42:58.319Z,19.47
2023-01-05T04:45:46.911Z,12.87
2023-01-05T04:48:33.371Z,13.80
2023-01-05T04:51:19.841Z,12.40
2023-01-05T04:54:06.449Z,13.23
2023-01-05T04:56:52.892Z,12.60
2023-01-05T04:59:39.280Z,13.17
2023-01-05T05:02:27.340Z,11.87
2023-01-05T05:05:14.065Z,13.53
2023-01-05T05:08:00.271Z,13.27
2023-01-05T05:10:46.469Z,12.50
2023-01-05T05:13:32.651Z,13.40
2023-01-05T05:16:19.177Z,11.50
2023-01-05T05:19:07.084Z,13.77
2023-01-05T05:21:53.611Z,17.10
2023-01-05T05:24:39.789Z,15.67
2023-01-05T05:27:26.431Z,14.83
2023-01-05T05:30:13.484Z,11.03
2023-01-05T05:33:00.089Z,10.53
2023-01-05T05:35:47.668Z,12.40
2023-01-05T05:38:34.177Z,13.37
2023-01-05T05:41:20.420Z,13.17
2023-01-05T05:44:06.795Z,10.83
2023-01-05T05:46:53.657Z,13.90
2023-01-05T05:49:39.940Z,15.83
2023-01-05T05:52:27.748Z,14.33
2023-01-05T05:55:14.217Z,13.87
2023-01-05T05:58:00.664Z,14.13
2023-01-05T06:00:47.160Z,13.60
2023-01-05T06:03:34.048Z,15.90
2023-01-05T06:06:20.658Z,14.93
2023-01-05T06:09:08.148Z,13.47
2023-01-05T06:11:55.253Z,15.33
2023-01-05T06:14:41.487Z,13.73
2023-01-05T06:17:27.920Z,15.23
2023-01-05T06:20:14.192Z,11.47
2023-01-05T06:23:00.905Z,11.43
2023-01-05T06:25:48.491Z,13.30
2023-01-05T06:28:34.939Z,11.73
2023-01-05T06:31:21.466Z,14.47
2023-01-05T06:34:08.108Z,13.13
2023-01-05T06:37:01.902Z,44.27
2023-01-05T06:39:48.401Z,26.13
2023-01-05T06:42:36.259Z,16.37
2023-01-05T06:45:22.576Z,16.07
2023-01-05T06:48:08.850Z,15.73
2023-01-05T06:50:55.044Z,12.50
2023-01-05T06:53:41.430Z,11.83
2023-01-05T06:56:27.822Z,13.13
2023-01-05T06:59:15.765Z,10.73
2023-01-05T07:02:02.172Z,13.80
2023-01-05T07:04:48.468Z,14.07
2023-01-05T07:07:35.093Z,15.53
2023-01-05T07:10:21.249Z,16.33
2023-01-05T07:13:07.401Z,13.97
2023-01-05T07:15:55.292Z,12.93
2023-01-05T07:18:41.733Z,15.47
2023-01-05T07:21:28.105Z,15.17
2023-01-05T07:24:14.289Z,17.27
2023-01-05T07:27:04.476Z,17.93
2023-01-05T07:29:56.137Z,15.93
2023-01-05T07:32:43.565Z,18.90
2023-01-05T07:35:30.078Z,19.70
2023-01-05T07:38:16.355Z,24.03
2023-01-05T07:41:03.628Z,20.73
2023-01-05T07:43:51.064Z,21.37
2023-01-05T07:46:37.645Z,20.10
2023-01-05T07:49:25.261Z,20.23
2023-01-05T07:52:11.800Z,18.27
2023-01-05T07:54:58.538Z,16.03
2023-01-05T07:57:44.884Z,20.23
2023-01-05T08:00:31.138Z,27.17
2023-01-05T08:03:17.372Z,31.67
2023-01-05T08:06:06.489Z,22.67
2023-01-05T08:08:52.994Z,18.10
2023-01-05T08:11:39.718Z,17.73
2023-01-05T08:14:25.783Z,14.27
2023-01-05T08:17:12.229Z,14.60
2023-01-05T08:19:58.405Z,15.67
2023-01-05T08:22:50.776Z,12.47
2023-01-05T08:25:36.782Z,13.77
2023-01-05T08:28:23.498Z,12.43
2023-01-05T08:31:11.668Z,20.33
2023-01-05T08:34:00.227Z,12.27
2023-01-05T08:36:47.106Z,13.07
2023-01-05T08:39:36.046Z,14.80
2023-01-05T08:42:22.442Z,13.40
2023-01-05T08:45:10.219Z,13.23
2023-01-05T08:47:56.640Z,10.87
2023-01-05T08:50:43.197Z,13.03
2023-01-05T08:53:29.387Z,12.80
2023-01-05T08:56:17.425Z,12.70
2023-01-05T08:59:03.499Z,12.97
2023-01-05T09:01:50.095Z,11.20
2023-01-05T09:04:36.486Z,10.83
2023-01-05T09:07:22.937Z,10.27
2023-01-05T09:10:09.937Z,9.57
2023-01-05T09:12:57.449Z,8.63
2023-01-05T09:15:43.810Z,9.90
2023-01-05T09:18:30.201Z,10.40
2023-01-05T09:21:16.976Z,9.93
2023-01-05T09:24:03.293Z,9.00
2023-01-05T09:26:51.427Z,9.43
2023-01-05T09:29:38.913Z,7.60
2023-01-05T09:32:25.447Z,7.23
2023-01-05T09:35:11.811Z,7.80
2023-01-05T09:37:57.926Z,8.27
2023-01-05T09:40:44.617Z,8.37
2023-01-05T09:43:33.777Z,9.17
2023-01-05T09:46:22.938Z,8.43
2023-01-05T09:49:13.989Z,8.43
2023-01-05T09:52:01.906Z,7.70
2023-01-05T09:54:48.361Z,7.80
2023-01-05T09:57:34.864Z,8.30
2023-01-05T10:00:22.202Z,9.30
2023-01-05T10:03:29.276Z,8.87
2023-01-05T10:06:19.054Z,8.30
2023-01-05T10:09:06.879Z,8.87
2023-01-05T10:12:14.565Z,7.97
2023-01-05T10:15:03.829Z,8.50
2023-01-05T10:17:50.254Z,8.03
2023-01-05T10:20:41.645Z,8.80
2023-01-05T10:23:32.447Z,8.77
2023-01-05T10:26:22.528Z,8.67
2023-01-05T10:29:11.631Z,7.67
2023-01-05T10:32:03.809Z,6.20
2023-01-05T10:34:55.979Z,6.63
2023-01-05T10:37:57.010Z,7.23
2023-01-05T10:40:48.407Z,6.27
2023-01-05T10:43:41.810Z,5.23
2023-01-05T10:46:35.018Z,4.77
2023-01-05T10:49:29.055Z,4.97
2023-01-05T10:52:17.964Z,4.93
2023-01-05T10:55:14.182Z,5.07
2023-01-05T10:58:00.441Z,5.13
2023-01-05T11:00:46.746Z,4.43
2023-01-05T11:04:23.060Z,4.50
2023-01-05T11:06:44.359Z,4.87
2023-01-05T11:09:31.039Z,3.17
2023-01-05T11:12:20.337Z,3.37
2023-01-05T11:15:08.177Z,4.70
2023-01-05T11:17:55.176Z,4.80
2023-01-05T11:21:01.723Z,7.10
2023-01-05T11:23:48.974Z,3.07
2023-01-05T11:26:36.536Z,3.37
2023-01-05T11:29:24.225Z,4.03
2023-01-05T11:32:12.162Z,3.20
2023-01-05T11:34:58.711Z,2.90
2023-01-05T11:37:45.912Z,3.33
2023-01-05T11:40:35.194Z,4.03
2023-01-05T11:43:23.026Z,2.53
2023-01-05T11:46:12.324Z,3.40
2023-01-05T11:48:58.790Z,3.30
2023-01-05T11:51:44.918Z,2.93
2023-01-05T11:54:35.609Z,2.80
2023-01-05T11:57:23.530Z,2.77
2023-01-05T12:00:23.469Z,2.43
2023-01-05T12:03:17.549Z,3.20
2023-01-05T12:06:08.797Z,2.70
2023-01-05T12:08:59.206Z,2.80
2023-01-05T12:11:50.266Z,4.17
2023-01-05T12:14:45.129Z,2.73
2023-01-05T12:17:34.940Z,2.87
2023-01-05T12:20:32.500Z,3.03
2023-01-05T12:23:33.813Z,3.10
2023-01-05T12:26:23.101Z,2.83
2023-01-05T12:36:22.634Z,3.80
2023-01-05T12:39:31.572Z,2.93
2023-01-05T12:42:30.091Z,3.20
2023-01-05T12:45:34.516Z,3.57
2023-01-05T12:48:24.113Z,3.60
2023-01-05T12:51:13.993Z,4.03
2023-01-05T12:54:02.875Z,3.77
2023-01-05T12:56:52.421Z,4.03
2023-01-05T12:59:41.649Z,5.77
2023-01-05T13:02:31.598Z,4.77
2023-01-05T13:05:20.746Z,4.10
2023-01-05T13:08:10.430Z,4.03
2023-01-05T13:10:59.379Z,4.53
2023-01-05T13:13:48.916Z,3.90
2023-01-05T13:16:38.943Z,4.33
2023-01-05T13:19:26.669Z,3.13
2023-01-05T13:22:15.592Z,3.30
2023-01-05T13:25:04.916Z,3.03
2023-01-05T13:27:51.679Z,3.60
2023-01-05T13:30:44.262Z,3.20
2023-01-05T13:33:39.737Z,3.40
2023-01-05T13:36:32.607Z,4.83
2023-01-05T13:39:33.528Z,5.67
2023-01-05T13:42:25.724Z,6.17
2023-01-05T13:45:27.002Z,4.27
2023-01-05T13:48:34.031Z,4.03
2023-01-05T13:51:37.836Z,3.50
2023-01-05T13:54:43.183Z,4.37
2023-01-05T13:57:37.864Z,4.57
2023-01-05T14:00:26.990Z,4.07
2023-01-05T14:03:22.381Z,4.53
2023-01-05T14:06:18.709Z,2.10
2023-01-05T14:09:07.095Z,3.00
2023-01-05T14:12:12.011Z,2.40
2023-01-05T14:15:00.480Z,2.67
2023-01-05T14:17:54.572Z,2.63
2023-01-05T14:20:49.128Z,2.73
2023-01-05T14:23:58.484Z,2.80
2023-01-05T14:27:02.020Z,4.93
2023-01-05T14:30:09.422Z,3.20
2023-01-05T14:32:56.169Z,2.80
2023-01-05T14:35:44.445Z,3.07
2023-01-05T14:38:30.541Z,3.80
2023-01-05T14:41:26.725Z,4.30
2023-01-05T14:44:18.381Z,4.07
2023-01-05T14:47:05.113Z,3.43
2023-01-05T14:50:03.587Z,3.50
2023-01-05T14:52:57.802Z,2.63
2023-01-05T14:55:59.006Z,2.77
2023-01-05T14:59:03.655Z,3.60
2023-01-05T15:01:53.921Z,4.40
2023-01-05T15:04:41.903Z,5.00
2023-01-05T15:07:33.207Z,5.23
2023-01-05T15:10:37.800Z,5.67
2023-01-05T15:13:40.048Z,8.07
2023-01-05T15:16:34.166Z,26.27
2023-01-05T15:19:34.286Z,26.20
2023-01-05T15:22:38.008Z,25.43
2023-01-05T15:25:43.456Z,25.43
2023-01-05T15:28:51.992Z,20.97
2023-01-05T15:31:40.091Z,41.60
2023-01-05T15:34:30.944Z,77.53
2023-01-05T15:37:21.016Z,47.77
2023-01-05T15:40:09.296Z,84.43
2023-01-05T15:42:57.544Z,86.40
2023-01-05T15:45:44.031Z,52.13
2023-01-05T15:48:32.910Z,76.13
2023-01-05T15:51:24.662Z,74.33
2023-01-05T15:54:19.538Z,67.13
2023-01-05T15:57:19.692Z,57.97
2023-01-05T16:00:16.509Z,43.47
2023-01-05T16:03:02.831Z,74.47
2023-01-05T16:05:49.401Z,42.40
2023-01-05T16:08:38.078Z,90.63
2023-01-05T16:11:26.726Z,85.27
2023-01-05T16:14:15.976Z,30.77
2023-01-05T16:17:04.863Z,33.43
2023-01-05T16:19:53.200Z,148.23
2023-01-05T16:22:41.967Z,172.53
2023-01-05T16:25:30.366Z,141.93
2023-01-05T16:28:18.167Z,155.30
2023-01-05T16:31:13.126Z,149.47
2023-01-05T16:34:03.647Z,124.97
2023-01-05T16:37:00.371Z,146.80
2023-01-05T16:39:47.221Z,189.63
2023-01-05T16:42:46.472Z,116.07
2023-01-05T16:45:33.864Z,159.00
2023-01-05T16:48:47.028Z,261.43
2023-01-05T16:51:41.471Z,301.70
2023-01-05T16:54:36.290Z,94.33
2023-01-05T16:57:32.218Z,45.50
2023-01-05T17:00:36.517Z,77.87
2023-01-05T17:03:30.334Z,86.27
2023-01-05T17:06:21.106Z,224.43
2023-01-05T17:09:15.172Z,352.70
2023-01-05T17:12:01.553Z,212.37
2023-01-05T17:14:48.148Z,268.30
2023-01-05T17:17:35.596Z,179.57
2023-01-05T17:20:22.368Z,70.47
2023-01-05T17:23:10.774Z,34.20
2023-01-05T17:25:58.414Z,25.50
2023-01-05T17:28:44.898Z,24.73
2023-01-05T17:31:31.298Z,20.30
2023-01-05T17:34:19.170Z,17.93
2023-01-05T17:37:05.439Z,11.73
2023-01-05T17:39:51.614Z,10.10
2023-01-05T17:42:43.907Z,9.83
2023-01-05T17:45:31.077Z,8.17
2023-01-05T17:48:17.320Z,7.17
2023-01-05T17:51:05.200Z,6.60
2023-01-05T17:53:51.827Z,6.37
2023-01-05T17:56:38.309Z,7.30
2023-01-05T17:59:24.928Z,9.27
2023-01-05T18:02:11.501Z,9.37
2023-01-05T18:04:58.338Z,10.93
2023-01-05T18:07:46.798Z,9.47
2023-01-05T18:10:33.336Z,10.43
2023-01-05T18:13:22.525Z,11.30
2023-01-05T18:16:09.692Z,8.57
2023-01-05T18:18:56.210Z,12.07
2023-01-05T18:24:31.337Z,10.10
2023-01-05T18:27:17.842Z,13.37
2023-01-05T18:30:04.580Z,13.17
2023-01-05T18:32:50.936Z,11.37
2023-01-05T18:35:43.427Z,9.00
2023-01-05T18:38:30.040Z,8.73
2023-01-05T18:41:22.885Z,9.93
2023-01-05T18:44:09.513Z,10.30
2023-01-05T18:46:55.830Z,10.47
2023-01-05T18:49:42.020Z,10.43
2023-01-05T18:52:29.392Z,8.53
2023-01-05T18:55:15.718Z,7.43
2023-01-05T18:58:03.815Z,7.63
2023-01-05T19:00:50.485Z,8.40
2023-01-05T19:03:37.065Z,13.93
2023-01-05T19:06:24.190Z,12.63
2023-01-05T19:09:11.715Z,9.33
2023-01-05T19:11:58.284Z,9.30
2023-01-05T19:14:46.245Z,9.83
2023-01-05T19:17:34.329Z,8.93
2023-01-05T19:20:21.274Z,9.27
2023-01-05T19:23:07.686Z,9.80
2023-01-05T19:25:54.454Z,9.20
2023-01-05T19:28:41.312Z,8.80
2023-01-05T19:31:29.343Z,9.03
2023-01-05T19:34:18.466Z,8.63
2023-01-05T19:37:06.437Z,8.83
2023-01-05T19:39:52.817Z,12.70
2023-01-05T19:42:39.956Z,11.23
2023-01-05T19:45:26.243Z,12.00
2023-01-05T19:48:14.284Z,12.73
2023-01-05T19:51:00.979Z,12.13
2023-01-05T19:53:52.686Z,13.73
2023-01-05T19:56:39.636Z,13.03
2023-01-05T19:59:33.256Z,15.20
2023-01-05T20:02:19.959Z,15.43
2023-01-05T20:05:08.780Z,14.63
2023-01-05T20:07:55.274Z,18.27
2023-01-05T20:10:42.147Z,12.43
2023-01-05T20:13:28.683Z,11.47
2023-01-05T20:16:15.276Z,12.63
2023-01-05T20:19:01.848Z,8.67
2023-01-05T20:21:50.125Z,17.37
2023-01-05T20:24:37.466Z,8.73
2023-01-05T20:27:23.812Z,10.70
2023-01-05T20:30:11.020Z,10.20
2023-01-05T20:32:57.211Z,6.47
2023-01-05T20:35:43.588Z,6.20
2023-01-05T20:38:32.282Z,5.47
2023-01-05T20:41:19.881Z,4.07
2023-01-05T20:44:06.317Z,3.83
2023-01-05T20:46:55.334Z,4.47
2023-01-05T20:49:42.294Z,3.03
2023-01-05T20:52:28.871Z,3.87
2023-01-05T20:55:18.910Z,5.67
2023-01-05T20:58:05.636Z,4.60
2023-01-05T21:01:10.576Z,6.17
2023-01-05T21:03:59.556Z,6.53
2023-01-05T21:06:45.943Z,6.00
2023-01-05T21:09:33.825Z,5.17
2023-01-05T21:12:27.379Z,5.53
2023-01-05T21:15:13.885Z,5.40
2023-01-05T21:18:05.494Z,3.97
2023-01-05T21:20:51.903Z,2.90
2023-01-05T21:23:38.466Z,4.47
2023-01-05T21:26:25.050Z,4.00
2023-01-05T21:29:13.828Z,3.47
2023-01-05T21:32:00.178Z,2.83
2023-01-05T21:34:47.102Z,2.77
2023-01-05T21:37:34.038Z,2.53
2023-01-05T21:40:20.851Z,1.70
2023-01-05T21:43:07.804Z,2.03
2023-01-05T21:45:56.092Z,3.13
2023-01-05T21:48:42.401Z,1.30
2023-01-05T21:51:46.355Z,1.53
2023-01-05T21:54:50.277Z,1.37
2023-01-05T21:57:36.955Z,1.77
2023-01-05T22:00:23.367Z,2.03
2023-01-05T22:03:11.861Z,2.50
2023-01-05T22:05:58.067Z,1.80
2023-01-05T22:08:44.412Z,2.30
2023-01-05T22:11:30.630Z,1.90
2023-01-05T22:14:16.681Z,1.93
2023-01-05T22:17:06.219Z,2.07
2023-01-05T22:19:53.965Z,1.93
2023-01-05T22:22:40.519Z,1.60
2023-01-05T22:25:27.033Z,1.87
2023-01-05T22:28:13.052Z,1.93
2023-01-05T22:31:06.757Z,1.83
2023-01-05T22:33:54.450Z,1.33
2023-01-05T22:36:42.340Z,1.67
2023-01-05T22:39:28.730Z,1.53
2023-01-05T22:42:14.987Z,1.47
2023-01-05T22:45:01.529Z,2.53
2023-01-05T22:47:47.966Z,1.37
2023-01-05T22:50:34.558Z,1.17
2023-01-05T22:53:22.793Z,2.00
2023-01-05T22:56:09.969Z,1.83
2023-01-05T22:58:56.950Z,2.37
2023-01-05T23:01:45.272Z,2.00
2023-01-05T23:04:32.088Z,1.50
2023-01-05T23:07:20.767Z,1.47
2023-01-05T23:10:09.405Z,1.47
2023-01-05T23:12:57.684Z,1.83
2023-01-05T23:15:44.247Z,1.70
2023-01-05T23:18:30.821Z,2.17
2023-01-05T23:21:18.112Z,2.27
2023-01-05T23:24:04.853Z,1.10
2023-01-05T23:26:52.514Z,1.60
2023-01-05T23:29:38.951Z,1.43
2023-01-05T23:32:25.589Z,1.60
2023-01-05T23:35:11.947Z,1.30
2023-01-05T23:37:58.230Z,1.97
2023-01-05T23:40:45.487Z,1.43
2023-01-05T23:43:33.667Z,1.47
2023-01-05T23:46:20.836Z,1.60
2023-01-05T23:49:07.470Z,1.47
2023-01-05T23:51:53.562Z,1.77
2023-01-05T23:54:40.070Z,1.60
2023-01-05T23:57:26.744Z,1.50
